Main page
METAR-TAF:

METAR-TAF

Airports :

Sachs Harbour (David Nasogaluak Jr. Saaryuaq) Airport

Sachs Harbour, Northwest Territories, Canada

latitude: 72-00N, longitude: 125-17W, elevation: 86 m

Current weather observation

The report was made 2 hours and 0 minutes ago, at 23:00 UTC
Wind 5 kt from the North
Temperature -16°C
Humidity 84%
Pressure 1024 hPa
Visibility: 24.1 km
Broken clouds at a height of 800 ft
light snow

METAR: CYSY 242300Z 36005KT 15SM -SN BKN008 M16/M18 A3023 RMK ST7 LAST STFD OBS/NEXT 251300 UTC / WIND EST SLP250

Time: 19:00 (01:00 UTC)

Forecast

The report was made 6 hours and 20 minutes ago, at 18:40 UTC
Forecast valid from 24 at 19 UTC to 24 at 23 UTC
Wind 5 kt from the Northwest
Visibility: 10 km
Broken clouds at a height of 600 ft
Temporary
from 24 at 19 UTC to 24 at 23 UTC
Broken clouds at a height of 1000 ft
Becoming
from 24 at 19 UTC to 24 at 21 UTC
Wind 12 kt from the North

TAF: CYSY 241840Z 2419/2423 32005KT P6SM BKN006 TEMPO 2419/2423 BKN010 BECMG 2419/2421 01012KT RMK NXT FCST BY 251500Z

Weather observations and forecasts of more than 4000 airports (METAR and TAF reports).

The available stations are represented by yellow and red dots on the map.

Hover mouse over dot to see the name of the station.

Then click to see weather observations and forecasts.

To change the map : click on the green buttons with a black cross to zoom in, on the green button with a dash to zoom out, or on the green arrows for adjacent maps.


METAR-TAF: